Flight Track Log - Related Links

Times and Time Zones

All times are in EDT time to prevent confusion due to time zone crossing. See the ASQ4633 flight status page for this flight to view local times or setup timezone preferences in your user account.

Time Position Orientation Groundspeed Altitude Reporting Facility
EDT Latitude Longitude Course Direction KTS MPH feet Rate Location/Type
Sun 11:11:54 PM 39.8333 -104.7500 90° East 169 194 6,600  Level Denver TRACON
Sun 11:12:54 PM 39.8667 -104.8167 303° West 231 266 7,600 1,526 Climbing Denver TRACON
Sun 11:13:48 PM 39.9000 -104.8833 303° West 271 312 9,500 1,920 Climbing Denver TRACON
Sun 11:14:00 PM 40.0573 -104.3740 323° Northwest  Level FlightAware Approximate
Sun 11:14:09 PM 39.9147 -104.9211 297° West 269 310 10,000  Level Denver Center
Sun 11:15:00 PM 40.1549 -104.4715 323° Northwest  Level FlightAware Approximate
Sun 11:15:11 PM 39.9778 -104.9697 329° Northwest 290 334 11,900  Level Denver Center
Sun 11:16:00 PM 40.2703 -104.5000 North  Level FlightAware Approximate
Sun 11:16:12 PM 40.0261 -104.8817 54° Northeast 305 351 14,000  Level Denver Center
Sun 11:17:00 PM 40.3667 -104.4211 90° East  Level FlightAware Approximate
Sun 11:17:14 PM 40.0636 -104.7758 65° Northeast 318 366 15,900  Level Denver Center
Sun 11:18:15 PM 40.1172 -104.6672 57° Northeast 342 394 17,800 1,721 Climbing Denver Center
Sun 11:19:16 PM 40.1919 -104.5983 35° Northeast 330 380 19,400 1,317 Climbing Denver Center
Sun 11:20:18 PM 40.2700 -104.5236 36° Northeast 350 403 20,500 1,073 Climbing Denver Center
Sun 11:21:19 PM 40.3547 -104.4464 35° Northeast 371 427 21,600 1,561 Climbing Denver Center
Sun 11:22:21 PM 40.4453 -104.3583 36° Northeast 374 430 23,700 1,902 Climbing Denver Center
Sun 11:23:22 PM 40.5233 -104.2856 35° Northeast 357 411 25,500 1,433 Climbing Denver Center
Sun 11:24:35 PM 40.6039 -104.2031 38° Northeast 366 421 26,900 1,333 Climbing Denver Center
Sun 11:25:37 PM 40.6914 -104.0894 45° Northeast 367 422 28,500 1,024 Climbing Denver Center
Sun 11:26:38 PM 40.7678 -103.9917 44° Northeast 378 435 29,000 244 Climbing Denver Center
Sun 11:27:40 PM 40.8544 -103.8819 44° Northeast 426 490 29,000 49 Level Denver Center
Sun 11:28:41 PM 40.9639 -103.7392 45° Northeast 459 528 29,100 541 Climbing Denver Center
Sun 11:29:42 PM 41.0597 -103.6136 45° Northeast 471 542 30,100 885 Climbing Denver Center
Sun 11:30:43 PM 41.1331 -103.5175 45° Northeast 466 536 30,900 878 Climbing Denver Center
Sun 11:31:45 PM 41.2375 -103.3825 44° Northeast 468 539 31,900 878 Climbing Denver Center
Sun 11:32:46 PM 41.3411 -103.2450 45° Northeast 471 542 32,700 541 Climbing Denver Center
Sun 11:33:47 PM 41.4092 -103.1047 57° Northeast 477 549 33,000 146 Climbing Denver Center
Sun 11:34:49 PM 41.4478 -102.9036 76° East 501 577 33,000 293 Level Denver Center
Sun 11:35:50 PM 41.4792 -102.7353 76° East 496 571 33,600 738 Climbing Denver Center
Sun 11:36:51 PM 41.5092 -102.5769 76° East 478 550 34,500 689 Climbing Denver Center
Sun 11:37:52 PM 41.5439 -102.3897 76° East 467 537 35,000 244 Climbing Denver Center
Sun 11:38:54 PM 41.5747 -102.2275 76° East 469 540 35,000  Level Denver Center
Sun 11:39:55 PM 41.6275 -102.0375 70° East 484 557 35,000  Level Denver Center
Sun 11:40:56 PM 41.6722 -101.8731 70° East 490 564 35,000  Level Denver Center
Sun 11:41:57 PM 41.7167 -101.7067 70° East 494 568 35,000  Level Denver Center
Sun 11:42:58 PM 41.7681 -101.5114 71° East 496 571 35,000  Level Denver Center
Sun 11:43:59 PM 41.8125 -101.3425 71° East 500 575 35,000  Level Denver Center
Sun 11:45:01 PM 41.8569 -101.1736 70° East 500 575 35,000  Level Denver Center
Sun 11:46:02 PM 41.9089 -100.9742 71° East 504 580 35,000  Level Denver Center
Sun 11:47:03 PM 41.9528 -100.8047 71° East 503 579 35,000  Level Denver Center
Sun 11:48:04 PM 41.9942 -100.6408 71° East 490 564 35,000  Level Denver Center
Sun 11:49:05 PM 42.0428 -100.4475 71° East 487 560 35,000  Level Denver Center
Sun 11:50:06 PM 42.0836 -100.2836 71° East 485 558 35,000  Level Denver Center
Sun 11:51:07 PM 42.1317 -100.0919 71° East 485 558 35,000  Level Denver Center
Sun 11:52:08 PM 42.1728 -99.9256 72° East 489 563 35,000  Level Denver Center
Sun 11:52:34 PM 42.1869 -99.8697 71° East 485 558 35,000  Level Minneapolis Center
Sun 11:53:35 PM 42.2300 -99.6964 71° East 486 559 35,000  Level Minneapolis Center
Sun 11:54:10 PM 42.2553 -99.5900 72° East 488 562 35,000  Level Denver Center
Sun 11:55:11 PM 42.2981 -99.4133 72° East 492 566 35,000  Level Denver Center
Sun 11:55:37 PM 42.3150 -99.3447 72° East 492 566 35,000  Level Minneapolis Center
Sun 11:56:38 PM 42.3658 -99.1319 72° East 494 568 35,000  Level Minneapolis Center
Sun 11:57:39 PM 42.4069 -98.9586 72° East 487 560 35,000  Level Minneapolis Center
Sun 11:58:41 PM 42.4478 -98.7842 72° East 485 558 35,000  Level Minneapolis Center
Sun 11:59:42 PM 42.4597 -98.5961 85° East 505 581 35,000  Level Minneapolis Center
Mon 12:00:43 AM 42.4419 -98.4103 97° East 503 579 35,000  Level Minneapolis Center
Mon 12:01:44 AM 42.4203 -98.2186 99° East 509 586 35,000  Level Minneapolis Center
Mon 12:02:45 AM 42.3992 -98.0278 98° East 511 588 35,000  Level Minneapolis Center
Mon 12:03:46 AM 42.3775 -97.8344 99° East 517 595 35,000  Level Minneapolis Center
Mon 12:04:47 AM 42.3578 -97.6564 98° East 520 598 35,000  Level Minneapolis Center
Mon 12:05:48 AM 42.3339 -97.4636 99° East 520 598 35,000  Level Minneapolis Center
Mon 12:06:49 AM 42.3067 -97.2292 99° East 524 603 35,000  Level Minneapolis Center
Mon 12:07:50 AM 42.2836 -97.0336 99° East 526 605 35,000  Level Minneapolis Center
Mon 12:09:03 AM 42.2553 -96.7994 99° East 526 605 35,000  Level Minneapolis Center
Mon 12:10:04 AM 42.2303 -96.6025 100° East 529 609 35,000  Level Minneapolis Center
Mon 12:11:05 AM 42.2114 -96.4442 99° East 531 611 35,000  Level Minneapolis Center
Mon 12:12:06 AM 42.1803 -96.2056 100° East 535 616 35,000  Level Minneapolis Center
Mon 12:13:06 AM 42.1547 -96.0061 100° East 536 617 35,000  Level Minneapolis Center
Mon 12:14:07 AM 42.1283 -95.8047 100° East 541 623 35,000  Level Minneapolis Center
Mon 12:15:08 AM 42.1006 -95.6053 101° East 541 623 35,000  Level Minneapolis Center
Mon 12:16:09 AM 42.0742 -95.4039 100° East 544 626 35,000  Level Minneapolis Center
Mon 12:17:10 AM 42.0461 -95.2044 101° East 540 621 35,000  Level Minneapolis Center
Mon 12:18:10 AM 42.0186 -95.0058 100° East 541 623 35,000  Level Minneapolis Center
Mon 12:19:11 AM 41.9903 -94.8069 101° East 540 621 35,000  Level Minneapolis Center
Mon 12:20:12 AM 41.9628 -94.6117 101° East 534 615 35,000  Level Minneapolis Center
Mon 12:21:13 AM 41.9350 -94.4194 101° East 524 603 35,000  Level Minneapolis Center
Mon 12:22:13 AM 41.9069 -94.2286 101° East 520 598 35,000  Level Minneapolis Center
Mon 12:23:14 AM 41.8783 -94.0372 101° East 521 600 35,000  Level Minneapolis Center
Mon 12:24:15 AM 41.8481 -93.8317 101° East 526 605 35,000  Level Minneapolis Center
Mon 12:25:16 AM 41.8189 -93.6389 101° East 529 609 35,000  Level Minneapolis Center
Mon 12:26:16 AM 41.7897 -93.4481 102° East 527 606 35,000  Level Minneapolis Center
Mon 12:27:17 AM 41.7603 -93.2542 101° East 532 612 35,000 -446 Level Minneapolis Center
Mon 12:28:17 AM 41.7311 -93.0647 102° East 528 608 34,100 -942 Descending Minneapolis Center
Mon 12:29:18 AM 41.7028 -92.8825 102° East 514 592 33,100 -934 Descending Minneapolis Center
Mon 12:30:19 AM 41.6733 -92.7014 102° East 505 581 32,200 -886 Descending Minneapolis Center
Mon 12:30:46 AM 41.6589 -92.6136 102° East 502 578 31,800 -966 Descending Chicago Center
Mon 12:31:46 AM 41.6292 -92.4336 102° East 502 578 30,800 -1,200 Descending Chicago Center
Mon 12:32:46 AM 41.6000 -92.2525 102° East 504 580 29,400 -1,339 Descending Chicago Center
Mon 12:33:47 AM 41.5694 -92.0717 103° East 506 582 28,100 -1,289 Descending Chicago Center
Mon 12:34:47 AM 41.5408 -91.8889 102° East 508 585 26,800 -2,182 Descending Chicago Center
Mon 12:35:48 AM 41.5100 -91.6781 101° East 489 563 23,700 -3,174 Descending Chicago Center
Mon 12:36:48 AM 41.5108 -91.5133 90° East 450 518 20,400 -3,322 Descending Chicago Center
Mon 12:37:49 AM 41.5008 -91.3478 95° East 452 520 17,000 -3,025 Descending Chicago Center
Mon 12:38:49 AM 41.4878 -91.1961 97° East 438 504 14,300 -2,800 Descending Chicago Center
Mon 12:39:49 AM 41.4767 -91.0572 96° East 395 455 11,400 -2,182 Descending Chicago Center
Mon 12:40:50 AM 41.4658 -90.9308 96° East 359 413 9,900 -1,091 Descending Chicago Center
Mon 12:41:50 AM 41.4575 -90.8394 97° East 280 322 9,200 -1,150 Descending Chicago Center
Mon 12:42:50 AM 41.4533 -90.7722 95° East 194 223 7,600 -1,983 Descending Chicago Center
Mon 12:43:51 AM 41.4522 -90.7122 91° East 165 190 5,200 -2,281 Descending Chicago Center
Mon 12:44:51 AM 41.4511 -90.6517 91° East 165 190 3,000 -1,800 Descending Chicago Center
Mon 12:45:51 AM 41.4511 -90.5972 90° East 158 182 1,600 -992 Descending Chicago Center
Mon 12:46:52 AM 41.4497 -90.5353 92° East 154 177 1,000 -590 Descending Chicago Center

Login

Don't have an account? Register now (free) for customized features, flight alerts, and more!